Aviation Digital Data Service (ADDS)

Output produced by METARs form (1615 UTC 01 October 2014)
found at http://aviationweather.gov/adds/metars/
 
KFAY 011346Z 0114/0212 00000KT 3SM BR BKN002 
     TEMPO 0114/0115 6SM BR SCT005 
     FM011500 VRB05KT P6SM SCT035 
     FM020800 00000KT 4SM BR SCT002 SCT030